createdAt,value
2018-09-25T00:00:16.204Z,94.84
2018-09-25T00:02:50.755Z,94.62
2018-09-25T00:05:25.255Z,94.64
2018-09-25T00:07:59.715Z,95.53
2018-09-25T00:10:34.164Z,96.39
2018-09-25T00:13:08.749Z,95.61
2018-09-25T00:15:43.486Z,95.96
2018-09-25T00:18:18.055Z,95.24
2018-09-25T00:20:52.716Z,95.46
2018-09-25T00:23:27.468Z,95.55
2018-09-25T00:26:02.093Z,95.19
2018-09-25T00:28:36.653Z,94.71
2018-09-25T00:31:11.359Z,95.07
2018-09-25T00:33:45.980Z,94.57
2018-09-25T00:36:20.468Z,95.19
2018-09-25T00:38:55.154Z,95.36
2018-09-25T00:41:29.671Z,95.20
2018-09-25T00:44:04.264Z,94.76
2018-09-25T00:46:38.763Z,95.40
2018-09-25T00:49:13.291Z,95.83
2018-09-25T00:51:47.955Z,95.61
2018-09-25T00:54:22.537Z,96.12
2018-09-25T00:56:57.180Z,96.69
2018-09-25T00:59:31.837Z,96.11
2018-09-25T01:02:06.535Z,95.43
2018-09-25T01:04:41.220Z,95.73
2018-09-25T01:07:15.871Z,95.75
2018-09-25T01:09:50.404Z,96.39
2018-09-25T01:12:24.847Z,95.86
2018-09-25T01:14:59.515Z,96.13
2018-09-25T01:17:34.055Z,96.33
2018-09-25T01:20:08.764Z,95.89
2018-09-25T01:22:43.343Z,95.31
2018-09-25T01:25:18.099Z,94.85
2018-09-25T01:27:52.665Z,94.73
2018-09-25T01:30:27.332Z,95.08
2018-09-25T01:33:02.052Z,95.63
2018-09-25T01:35:36.587Z,95.93
2018-09-25T01:38:11.151Z,96.17
2018-09-25T01:40:45.624Z,96.09
2018-09-25T01:43:20.228Z,94.31
2018-09-25T01:45:54.735Z,94.17
2018-09-25T01:48:29.342Z,93.61
2018-09-25T01:51:03.883Z,93.62
2018-09-25T01:53:38.579Z,94.57
2018-09-25T01:56:13.245Z,94.25
2018-09-25T01:58:47.992Z,94.80
2018-09-25T02:01:22.643Z,94.67
2018-09-25T02:03:57.247Z,94.27
2018-09-25T02:06:31.753Z,94.95
2018-09-25T02:09:06.354Z,95.72
2018-09-25T02:11:40.811Z,95.24
2018-09-25T02:14:15.359Z,94.52
2018-09-25T02:16:49.899Z,93.99
2018-09-25T02:19:24.411Z,94.35
2018-09-25T02:21:58.983Z,94.96
2018-09-25T02:24:33.744Z,95.08
2018-09-25T02:27:08.375Z,95.54
2018-09-25T02:29:42.856Z,95.41
2018-09-25T02:32:17.543Z,95.11
2018-09-25T02:34:52.120Z,95.65
2018-09-25T02:37:26.774Z,96.34
2018-09-25T02:40:01.421Z,97.71
2018-09-25T02:42:36.011Z,98.13
2018-09-25T02:45:10.491Z,97.54
2018-09-25T02:47:45.244Z,97.70
2018-09-25T02:50:19.787Z,97.47
2018-09-25T02:52:54.475Z,97.47
2018-09-25T02:55:29.151Z,97.32
2018-09-25T02:58:03.908Z,97.70
2018-09-25T03:00:38.651Z,98.03
2018-09-25T03:03:13.326Z,97.72
2018-09-25T03:05:47.852Z,98.02
2018-09-25T03:08:22.351Z,98.16
2018-09-25T03:10:57.035Z,97.98
2018-09-25T03:13:31.737Z,97.32
2018-09-25T03:16:06.342Z,97.80
2018-09-25T03:18:41.068Z,97.61
2018-09-25T03:21:15.521Z,97.62
2018-09-25T03:23:50.258Z,98.05
2018-09-25T03:26:24.837Z,97.78
2018-09-25T03:28:59.401Z,98.38
2018-09-25T03:31:34.109Z,98.42
2018-09-25T03:34:08.639Z,98.52
2018-09-25T03:36:43.091Z,98.90
2018-09-25T03:39:17.721Z,98.18
2018-09-25T03:41:52.395Z,99.12
2018-09-25T03:44:26.980Z,99.19
2018-09-25T03:47:01.756Z,98.71
2018-09-25T03:49:36.360Z,98.39
2018-09-25T03:52:10.891Z,98.82
2018-09-25T03:54:45.287Z,99.27
2018-09-25T03:57:19.748Z,99.13
2018-09-25T03:59:54.349Z,98.57
2018-09-25T04:02:29.108Z,99.44
2018-09-25T04:05:03.731Z,99.31
2018-09-25T04:07:38.472Z,99.75
2018-09-25T04:10:13.167Z,99.02
2018-09-25T04:12:47.668Z,98.92
2018-09-25T04:15:22.200Z,98.41
2018-09-25T04:17:56.912Z,99.09
2018-09-25T04:20:31.555Z,98.73
2018-09-25T04:23:06.284Z,98.94
2018-09-25T04:25:40.853Z,98.48
2018-09-25T04:28:15.636Z,98.41
2018-09-25T04:30:50.140Z,98.70
2018-09-25T04:33:24.876Z,98.65
2018-09-25T04:35:59.439Z,98.17
2018-09-25T04:38:34.056Z,98.03
2018-09-25T04:41:08.655Z,97.75
2018-09-25T04:43:43.435Z,97.11
2018-09-25T04:46:18.007Z,96.84
2018-09-25T04:48:52.576Z,97.83
2018-09-25T04:51:27.168Z,97.89
2018-09-25T04:54:01.628Z,98.44
2018-09-25T04:56:36.076Z,97.92
2018-09-25T04:59:10.663Z,97.72
2018-09-25T05:01:45.179Z,97.20
2018-09-25T05:04:19.612Z,97.70
2018-09-25T05:06:54.215Z,97.93
2018-09-25T05:09:28.677Z,97.30
2018-09-25T05:12:03.154Z,97.62
2018-09-25T05:14:37.733Z,98.04
2018-09-25T05:17:12.427Z,97.73
2018-09-25T05:19:46.836Z,97.64
2018-09-25T05:22:21.310Z,97.59
2018-09-25T05:24:55.901Z,97.58
2018-09-25T05:27:30.539Z,97.00
2018-09-25T05:30:05.148Z,96.26
2018-09-25T05:32:39.663Z,96.39
2018-09-25T05:35:14.315Z,95.76
2018-09-25T05:37:48.780Z,95.68
2018-09-25T05:40:23.423Z,96.12
2018-09-25T05:42:57.953Z,96.12
2018-09-25T05:45:32.575Z,95.28
2018-09-25T05:48:07.192Z,95.30
2018-09-25T05:50:41.760Z,94.52
2018-09-25T05:53:16.296Z,94.78
2018-09-25T05:55:50.743Z,95.23
2018-09-25T05:58:25.259Z,95.29
2018-09-25T06:00:59.942Z,95.60
2018-09-25T06:03:34.429Z,96.38
2018-09-25T06:06:09.097Z,97.02
2018-09-25T06:08:43.807Z,96.96
2018-09-25T06:11:18.623Z,95.89
2018-09-25T06:13:53.568Z,95.89
2018-09-25T06:16:28.439Z,96.15
2018-09-25T06:19:03.185Z,97.27
2018-09-25T06:21:37.904Z,97.24
2018-09-25T06:24:12.596Z,96.94
2018-09-25T06:26:47.305Z,97.07
2018-09-25T06:29:21.828Z,96.53
2018-09-25T06:31:56.563Z,96.50
2018-09-25T06:34:31.129Z,96.52
2018-09-25T06:37:05.851Z,96.10
2018-09-25T06:39:40.439Z,96.93
2018-09-25T06:42:15.160Z,96.23
2018-09-25T06:44:49.795Z,96.64
2018-09-25T06:47:24.387Z,96.52
2018-09-25T06:49:59.161Z,96.43
2018-09-25T06:52:33.687Z,96.46
2018-09-25T06:55:08.306Z,96.39
2018-09-25T06:57:42.656Z,95.91
2018-09-25T07:00:17.190Z,96.89
2018-09-25T07:02:51.595Z,96.13
2018-09-25T07:05:26.341Z,96.30
2018-09-25T07:08:08.047Z,96.52
2018-09-25T07:10:42.881Z,96.51
2018-09-25T07:13:17.352Z,95.80
2018-09-25T07:15:51.980Z,95.60
2018-09-25T07:18:26.804Z,95.41
2018-09-25T07:21:01.460Z,95.69
2018-09-25T07:23:35.983Z,96.74
2018-09-25T07:26:10.571Z,96.32
2018-09-25T07:28:45.251Z,95.76
2018-09-25T07:31:19.700Z,95.54
2018-09-25T07:33:54.131Z,95.62
2018-09-25T07:36:28.759Z,95.26
2018-09-25T07:39:03.449Z,95.60
2018-09-25T07:41:37.973Z,95.76
2018-09-25T07:44:12.772Z,94.81
2018-09-25T07:46:47.457Z,94.66
2018-09-25T07:49:22.079Z,94.56
2018-09-25T07:51:56.735Z,94.22
2018-09-25T07:54:31.288Z,92.79
2018-09-25T07:57:06.104Z,92.11
2018-09-25T07:59:40.893Z,91.82
2018-09-25T08:02:15.376Z,92.32
2018-09-25T08:04:49.899Z,92.04
2018-09-25T08:07:24.580Z,92.81
2018-09-25T08:09:59.155Z,91.54
2018-09-25T08:12:33.763Z,91.01
2018-09-25T08:15:08.592Z,90.48
2018-09-25T08:17:43.510Z,89.85
2018-09-25T08:20:18.147Z,89.00
2018-09-25T08:22:52.707Z,88.57
2018-09-25T08:25:27.127Z,89.31
2018-09-25T08:28:01.661Z,87.41
2018-09-25T08:30:36.159Z,87.52
2018-09-25T08:33:10.872Z,87.00
2018-09-25T08:35:45.396Z,86.89
2018-09-25T08:38:20.103Z,86.21
2018-09-25T08:40:54.575Z,86.32
2018-09-25T08:43:29.055Z,85.38
2018-09-25T08:46:03.808Z,84.50
2018-09-25T08:48:38.443Z,83.48
2018-09-25T08:51:13.023Z,83.86
2018-09-25T08:53:47.676Z,82.34
2018-09-25T08:56:22.199Z,82.60
2018-09-25T08:58:56.856Z,80.52
2018-09-25T09:01:31.380Z,80.20
2018-09-25T09:04:05.868Z,79.46
2018-09-25T09:06:40.519Z,78.21
2018-09-25T09:09:15.656Z,77.99
2018-09-25T09:11:50.171Z,77.57
2018-09-25T09:14:24.756Z,77.62
2018-09-25T09:16:59.200Z,75.84
2018-09-25T09:19:33.764Z,74.86
2018-09-25T09:22:08.487Z,75.52
2018-09-25T09:24:43.071Z,73.36
2018-09-25T09:27:17.637Z,73.37
2018-09-25T09:29:52.113Z,72.38
2018-09-25T09:32:26.746Z,72.94
2018-09-25T09:35:01.368Z,72.28
2018-09-25T09:39:07.799Z,71.82
2018-09-25T09:41:42.773Z,71.17
2018-09-25T09:44:17.178Z,70.39
2018-09-25T09:46:51.731Z,69.40
2018-09-25T09:49:26.468Z,68.67
2018-09-25T09:52:01.237Z,68.83
2018-09-25T09:54:36.067Z,65.93
2018-09-25T09:57:10.675Z,65.83
2018-09-25T09:59:45.326Z,65.79
2018-09-25T10:02:19.902Z,64.22
2018-09-25T10:04:54.759Z,63.70
2018-09-25T10:07:29.264Z,61.13
2018-09-25T10:10:03.751Z,62.34
2018-09-25T10:12:38.532Z,63.70
2018-09-25T10:15:13.284Z,63.83
2018-09-25T10:17:47.847Z,59.37
2018-09-25T10:20:22.287Z,59.09
2018-09-25T10:22:56.914Z,58.13
2018-09-25T10:25:31.552Z,57.95
2018-09-25T10:28:06.172Z,53.05
2018-09-25T10:30:41.038Z,52.24
2018-09-25T10:33:15.900Z,55.06
2018-09-25T10:35:50.654Z,51.46
2018-09-25T10:38:25.503Z,51.01
2018-09-25T10:41:00.437Z,50.44
2018-09-25T10:43:34.926Z,54.27
2018-09-25T10:46:09.815Z,55.17
2018-09-25T10:48:44.402Z,53.33
2018-09-25T10:51:19.055Z,54.54
2018-09-25T10:53:53.731Z,52.69
2018-09-25T10:56:28.215Z,53.62
2018-09-25T10:59:03.014Z,54.85
2018-09-25T11:01:37.499Z,54.14
2018-09-25T11:04:12.076Z,54.80
2018-09-25T11:06:46.684Z,55.24
2018-09-25T11:09:21.444Z,56.93
2018-09-25T11:11:56.247Z,59.59
2018-09-25T11:14:30.836Z,56.77
2018-09-25T11:17:05.483Z,56.58
2018-09-25T11:19:40.196Z,58.42
2018-09-25T11:22:14.828Z,59.45
2018-09-25T11:24:49.619Z,60.07
2018-09-25T11:27:24.305Z,58.23
2018-09-25T11:29:58.916Z,57.72
2018-09-25T11:32:33.702Z,55.36
2018-09-25T11:35:08.382Z,53.03
2018-09-25T11:37:43.128Z,52.49
2018-09-25T11:40:17.724Z,51.61
2018-09-25T11:42:52.227Z,48.29
2018-09-25T11:45:26.752Z,49.10
2018-09-25T11:48:01.433Z,48.56
2018-09-25T11:50:36.049Z,48.28
2018-09-25T11:53:10.529Z,51.23
2018-09-25T11:55:45.151Z,50.64
2018-09-25T11:58:19.597Z,49.28
2018-09-25T12:00:54.239Z,48.89
2018-09-25T12:03:28.804Z,50.70
2018-09-25T12:06:03.440Z,52.86
2018-09-25T12:08:38.175Z,52.56
2018-09-25T12:11:12.744Z,52.54
2018-09-25T12:13:47.282Z,52.67
2018-09-25T12:16:21.660Z,54.43
2018-09-25T12:18:56.403Z,51.68
2018-09-25T12:21:30.844Z,49.61
2018-09-25T12:24:05.559Z,49.13
2018-09-25T12:26:40.172Z,47.91
2018-09-25T12:29:14.760Z,46.14
2018-09-25T12:31:49.311Z,45.51
2018-09-25T12:34:23.990Z,44.97
2018-09-25T12:36:58.665Z,44.76
2018-09-25T12:39:33.267Z,44.24
2018-09-25T12:42:07.924Z,44.01
2018-09-25T12:44:42.584Z,45.36
2018-09-25T12:47:17.207Z,43.66
2018-09-25T12:49:51.836Z,40.67
2018-09-25T12:52:26.590Z,41.52
2018-09-25T12:55:01.125Z,40.99
2018-09-25T12:57:35.800Z,43.49
2018-09-25T13:00:10.736Z,42.26
2018-09-25T13:02:45.133Z,42.28
2018-09-25T13:05:19.922Z,43.79
2018-09-25T13:07:54.584Z,42.61
2018-09-25T13:10:29.199Z,44.02
2018-09-25T13:13:03.818Z,45.21
2018-09-25T13:15:38.387Z,45.04
2018-09-25T13:18:12.855Z,46.22
2018-09-25T13:20:47.379Z,43.69
2018-09-25T13:23:21.784Z,45.63
2018-09-25T13:25:56.527Z,44.87
2018-09-25T13:28:31.019Z,44.72
2018-09-25T13:31:05.591Z,45.42
2018-09-25T13:33:40.247Z,46.36
2018-09-25T13:36:14.884Z,46.09
2018-09-25T13:38:49.484Z,45.23
2018-09-25T13:41:23.952Z,43.78
2018-09-25T13:43:58.672Z,43.28
2018-09-25T13:46:33.151Z,42.53
2018-09-25T13:49:07.785Z,41.72
2018-09-25T13:51:42.375Z,39.68
2018-09-25T13:54:16.934Z,39.42
2018-09-25T13:56:51.549Z,37.38
2018-09-25T13:59:26.194Z,38.22
2018-09-25T14:02:00.644Z,36.77
2018-09-25T14:04:35.456Z,35.10
2018-09-25T14:07:10.107Z,35.43
2018-09-25T14:09:44.784Z,34.43
2018-09-25T14:12:19.335Z,35.19
2018-09-25T14:14:54.093Z,34.49
2018-09-25T14:17:28.639Z,32.09
2018-09-25T14:20:03.330Z,32.36
2018-09-25T14:22:38.040Z,32.21
2018-09-25T14:25:12.895Z,34.08
2018-09-25T14:27:47.743Z,33.59
2018-09-25T14:30:22.324Z,34.90
2018-09-25T14:32:56.996Z,35.96
2018-09-25T14:35:31.576Z,35.97
2018-09-25T14:38:06.106Z,37.71
2018-09-25T14:40:40.897Z,38.58
2018-09-25T14:43:15.331Z,39.09
2018-09-25T14:45:50.240Z,39.99
2018-09-25T14:48:24.874Z,42.52
2018-09-25T14:50:59.506Z,43.72
2018-09-25T14:53:34.165Z,44.59
2018-09-25T14:56:08.956Z,45.15
2018-09-25T14:58:43.511Z,45.87
2018-09-25T15:01:18.196Z,46.87
2018-09-25T15:03:52.741Z,48.13
2018-09-25T15:06:27.204Z,47.38
2018-09-25T15:09:01.703Z,47.45
2018-09-25T15:11:36.411Z,47.80
2018-09-25T15:14:10.955Z,49.03
2018-09-25T15:16:45.440Z,48.91
2018-09-25T15:19:19.816Z,49.55
2018-09-25T15:21:54.704Z,49.83
2018-09-25T15:24:29.088Z,50.12
2018-09-25T15:27:03.816Z,48.85
2018-09-25T15:29:38.428Z,47.47
2018-09-25T15:32:12.924Z,45.56
2018-09-25T15:34:47.616Z,42.85
2018-09-25T15:37:22.156Z,43.06
2018-09-25T15:39:56.895Z,43.94
2018-09-25T15:42:31.487Z,43.04
2018-09-25T15:45:05.948Z,45.37
2018-09-25T15:47:40.404Z,46.48
2018-09-25T15:50:15.187Z,47.42
2018-09-25T15:52:49.775Z,47.94
2018-09-25T15:55:24.296Z,45.54
2018-09-25T15:57:59.064Z,45.20
2018-09-25T16:00:33.556Z,43.53
2018-09-25T16:03:08.325Z,41.47
2018-09-25T16:05:42.801Z,40.09
2018-09-25T16:08:17.499Z,40.56
2018-09-25T16:10:52.127Z,38.10
2018-09-25T16:13:26.608Z,39.04
2018-09-25T16:16:01.203Z,39.26
2018-09-25T16:18:35.715Z,38.61
2018-09-25T16:21:10.476Z,40.60
2018-09-25T16:23:44.976Z,41.03
2018-09-25T16:26:19.551Z,42.99
2018-09-25T16:28:54.071Z,43.67
2018-09-25T16:31:28.771Z,45.21
2018-09-25T16:34:03.366Z,46.77
2018-09-25T16:36:37.919Z,48.75
2018-09-25T16:39:15.444Z,49.17
2018-09-25T16:41:50.216Z,50.42
2018-09-25T16:44:24.769Z,50.83
2018-09-25T16:46:59.475Z,52.96
2018-09-25T16:49:33.984Z,52.79
2018-09-25T16:52:08.633Z,54.07
2018-09-25T16:54:43.248Z,55.41
2018-09-25T16:57:17.777Z,56.41
2018-09-25T16:59:52.304Z,56.62
2018-09-25T17:02:26.913Z,58.44
2018-09-25T17:05:01.552Z,59.40
2018-09-25T17:07:36.109Z,61.08
2018-09-25T17:10:10.807Z,62.26
2018-09-25T17:12:45.416Z,63.54
2018-09-25T17:15:19.960Z,64.29
2018-09-25T17:17:54.724Z,64.56
2018-09-25T17:20:29.220Z,64.92
2018-09-25T17:23:03.788Z,62.46
2018-09-25T17:25:38.448Z,64.61
2018-09-25T17:28:13.096Z,66.49
2018-09-25T17:30:47.855Z,67.78
2018-09-25T17:33:22.434Z,69.21
2018-09-25T17:35:57.013Z,69.78
2018-09-25T17:38:31.585Z,70.70
2018-09-25T17:41:06.196Z,69.74
2018-09-25T17:43:40.628Z,70.61
2018-09-25T17:46:15.335Z,71.79
2018-09-25T17:48:50.216Z,72.40
2018-09-25T17:51:24.791Z,73.16
2018-09-25T17:53:59.560Z,74.20
2018-09-25T17:56:34.145Z,73.70
2018-09-25T17:59:08.766Z,74.17
2018-09-25T18:01:43.573Z,74.29
2018-09-25T18:04:18.254Z,74.25
2018-09-25T18:06:53.092Z,75.30
2018-09-25T18:09:27.805Z,75.51
2018-09-25T18:12:02.538Z,75.67
2018-09-25T18:14:37.469Z,75.45
2018-09-25T18:17:12.690Z,75.70
2018-09-25T18:19:48.316Z,75.51
2018-09-25T18:22:23.227Z,76.08
2018-09-25T18:24:59.131Z,75.86
2018-09-25T18:27:35.408Z,75.97
2018-09-25T18:30:11.061Z,76.82
2018-09-25T18:32:47.096Z,77.28
2018-09-25T18:35:23.288Z,76.77
2018-09-25T18:37:59.367Z,77.33
2018-09-25T18:40:36.152Z,77.27
2018-09-25T18:43:12.633Z,77.55
2018-09-25T18:45:49.184Z,77.64
2018-09-25T18:48:25.914Z,78.29
2018-09-25T18:51:02.983Z,78.20
2018-09-25T18:53:39.667Z,78.31
2018-09-25T18:56:16.763Z,78.13
2018-09-25T18:58:53.512Z,78.81
2018-09-25T19:01:30.316Z,79.06
2018-09-25T19:04:07.234Z,79.53
2018-09-25T19:06:44.167Z,79.57
2018-09-25T19:09:20.914Z,79.85
2018-09-25T19:11:57.878Z,80.41
2018-09-25T19:14:34.619Z,80.89
2018-09-25T19:17:11.650Z,82.04
2018-09-25T19:19:48.422Z,82.37
2018-09-25T19:22:25.352Z,82.41
2018-09-25T19:25:02.187Z,83.80
2018-09-25T19:27:40.112Z,84.84
2018-09-25T19:30:17.163Z,84.97
2018-09-25T19:32:54.059Z,84.95
2018-09-25T19:35:30.962Z,84.28
2018-09-25T19:38:07.805Z,83.89
2018-09-25T19:40:44.775Z,83.84
2018-09-25T19:43:21.678Z,83.96
2018-09-25T19:45:58.480Z,83.85
2018-09-25T19:48:35.266Z,83.66
2018-09-25T19:51:11.865Z,83.88
2018-09-25T19:53:48.687Z,83.67
2018-09-25T19:56:25.427Z,83.83
2018-09-25T19:59:02.938Z,83.91
2018-09-25T20:01:39.685Z,84.86
2018-09-25T20:04:16.125Z,85.86
2018-09-25T20:06:52.481Z,86.05
2018-09-25T20:09:28.479Z,85.68
2018-09-25T20:12:03.542Z,85.79
2018-09-25T20:14:38.719Z,85.50
2018-09-25T20:17:13.925Z,85.55
2018-09-25T20:19:49.078Z,86.25
2018-09-25T20:22:24.188Z,86.39
2018-09-25T20:24:58.949Z,85.87
2018-09-25T20:27:33.655Z,86.70
2018-09-25T20:30:08.467Z,86.09
2018-09-25T20:32:43.239Z,85.93
2018-09-25T20:35:18.116Z,85.88
2018-09-25T20:37:52.921Z,86.34
2018-09-25T20:40:27.607Z,87.28
2018-09-25T20:43:02.198Z,89.14
2018-09-25T20:45:36.621Z,90.21
2018-09-25T20:48:11.325Z,90.06
2018-09-25T20:50:45.755Z,89.71
2018-09-25T20:53:20.373Z,88.85
2018-09-25T20:55:54.967Z,88.97
2018-09-25T20:58:29.556Z,89.13
2018-09-25T21:01:04.283Z,89.19
2018-09-25T21:03:38.839Z,89.65
2018-09-25T21:06:13.327Z,90.57
2018-09-25T21:08:47.772Z,90.37
2018-09-25T21:11:22.252Z,90.19
2018-09-25T21:13:56.883Z,90.47
2018-09-25T21:16:31.656Z,89.46
2018-09-25T21:19:06.176Z,89.91
2018-09-25T21:21:40.763Z,90.26
2018-09-25T21:24:15.344Z,89.83
2018-09-25T21:26:49.996Z,89.52
2018-09-25T21:29:24.447Z,89.09
2018-09-25T21:31:59.128Z,89.93
2018-09-25T21:34:33.715Z,89.75
2018-09-25T21:37:08.203Z,89.29
2018-09-25T21:39:42.912Z,88.45
2018-09-25T21:42:17.476Z,88.59
2018-09-25T21:44:52.117Z,88.27
2018-09-25T21:47:26.588Z,88.51
2018-09-25T21:50:01.442Z,88.33
2018-09-25T21:52:36.050Z,88.05
2018-09-25T21:55:10.917Z,88.41
2018-09-25T21:57:45.767Z,89.37
2018-09-25T22:00:20.336Z,88.68
2018-09-25T22:02:54.931Z,88.12
2018-09-25T22:05:29.391Z,88.62
2018-09-25T22:08:04.045Z,87.99
2018-09-25T22:10:38.838Z,87.54
2018-09-25T22:13:13.709Z,89.12
2018-09-25T22:15:48.465Z,89.38
2018-09-25T22:18:23.132Z,88.97
2018-09-25T22:20:57.937Z,89.85
2018-09-25T22:23:32.703Z,89.50
2018-09-25T22:26:07.445Z,88.90
2018-09-25T22:28:42.232Z,89.07
2018-09-25T22:31:16.964Z,88.82
2018-09-25T22:33:51.588Z,89.32
2018-09-25T22:36:26.119Z,89.31
2018-09-25T22:39:00.855Z,89.23
2018-09-25T22:41:35.629Z,89.48
2018-09-25T22:44:10.219Z,90.14
2018-09-25T22:46:44.956Z,89.55
2018-09-25T22:49:19.524Z,89.46
2018-09-25T22:51:54.260Z,89.26
2018-09-25T22:54:28.692Z,89.41
2018-09-25T22:57:03.307Z,89.31
2018-09-25T22:59:37.831Z,89.96
2018-09-25T23:02:12.424Z,89.16
2018-09-25T23:04:47.140Z,89.65
2018-09-25T23:07:21.703Z,89.42
2018-09-25T23:09:56.407Z,89.13
2018-09-25T23:12:30.984Z,88.96
2018-09-25T23:15:05.455Z,89.00
2018-09-25T23:17:40.187Z,88.83
2018-09-25T23:20:14.943Z,89.31
2018-09-25T23:22:49.843Z,89.43
2018-09-25T23:25:24.564Z,89.44
2018-09-25T23:27:59.324Z,89.57
2018-09-25T23:30:33.884Z,89.84
2018-09-25T23:33:08.416Z,89.83
2018-09-25T23:35:42.911Z,89.52
2018-09-25T23:38:17.420Z,89.45
2018-09-25T23:41:51.815Z,88.80
2018-09-25T23:44:29.427Z,88.93
2018-09-25T23:47:10.659Z,89.11
2018-09-25T23:50:46.128Z,89.99
2018-09-25T23:53:20.537Z,90.18
2018-09-25T23:55:55.928Z,90.97
2018-09-25T23:58:43.564Z,90.94
